Time;durP1;ratioP1;P1;durP2;ratioP2;P2;SDS_P1;SDS_P2;PMS_P1;PMS_P2;Temp;Humidity;BMP_temperature;BMP_pressure;BME280_temperature;BME280_humidity;BME280_pressure;Samples;Min_cycle;Max_cycle;Signal;HPM_P1;HPM_P2
2024/04/09 00:01:27;;;;;;;8.88;5.90;;;;;;;13.06;100.00;100577.59;10728667;26;20470;-70
2024/04/09 00:06:25;;;;;;;9.65;5.88;;;;;;;13.11;100.00;100580.16;10705107;26;20017;-71
2024/04/09 00:11:22;;;;;;;12.15;5.80;;;;;;;13.19;100.00;100551.81;10713192;26;20014;-71
2024/04/09 00:16:25;;;;;;;7.78;6.10;;;;;;;13.28;100.00;100539.97;10693912;27;20498;-71
2024/04/09 00:21:30;;;;;;;9.55;6.57;;;;;;;13.25;100.00;100531.25;10688023;26;20018;-71
2024/04/09 00:26:30;;;;;;;13.77;7.90;;;;;;;13.23;100.00;100511.56;10712776;26;20118;-71
2024/04/09 00:31:27;;;;;;;9.07;6.47;;;;;;;13.15;100.00;100509.69;10718307;26;20011;-71
2024/04/09 00:36:24;;;;;;;11.05;5.88;;;;;;;13.13;100.00;100506.50;10703882;26;20006;-70
2024/04/09 00:41:21;;;;;;;11.15;6.15;;;;;;;13.04;100.00;100486.56;10703591;26;20002;-70
2024/04/09 00:46:19;;;;;;;8.15;6.03;;;;;;;12.95;100.00;100499.59;10689932;27;20022;-70
2024/04/09 00:51:20;;;;;;;11.18;6.28;;;;;;;12.87;100.00;100486.78;10711730;26;20015;-70
2024/04/09 00:56:18;;;;;;;8.90;6.95;;;;;;;12.86;100.00;100496.94;10692390;27;20002;-72
2024/04/09 01:01:16;;;;;;;9.63;6.32;;;;;;;12.87;100.00;100486.78;10719227;27;20718;-73
2024/04/09 01:06:15;;;;;;;11.63;7.10;;;;;;;12.88;100.00;100499.34;10710747;26;20098;-73
2024/04/09 01:11:12;;;;;;;9.05;6.63;;;;;;;12.88;100.00;100510.31;10704813;26;20400;-71
2024/04/09 01:16:10;;;;;;;9.98;6.70;;;;;;;12.90;100.00;100499.81;10708064;26;20017;-71
2024/04/09 01:21:08;;;;;;;12.45;6.28;;;;;;;12.96;100.00;100512.19;10699488;26;20006;-71
2024/04/09 01:26:09;;;;;;;12.88;6.47;;;;;;;12.89;100.00;100506.44;10699544;27;20014;-71
2024/04/09 01:31:11;;;;;;;9.30;6.60;;;;;;;12.83;100.00;100503.91;10697334;26;20014;-71
2024/04/09 01:36:10;;;;;;;9.30;6.35;;;;;;;12.93;100.00;100501.88;10706368;26;20394;-71
2024/04/09 01:41:08;;;;;;;9.05;5.93;;;;;;;12.94;100.00;100492.50;10719895;26;20061;-71
2024/04/09 01:46:09;;;;;;;9.27;7.43;;;;;;;13.01;100.00;100487.25;10718897;26;20003;-71
2024/04/09 01:51:12;;;;;;;10.85;7.05;;;;;;;13.07;100.00;100436.50;10713703;27;20156;-72
2024/04/09 01:56:12;;;;;;;11.57;6.20;;;;;;;13.20;100.00;100435.34;10701491;27;20010;-71
2024/04/09 02:01:10;;;;;;;10.00;6.30;;;;;;;13.26;100.00;100455.97;10718344;27;19999;-71
2024/04/09 02:06:09;;;;;;;10.30;6.10;;;;;;;13.24;100.00;100435.47;10716387;26;20092;-72
2024/04/09 02:11:06;;;;;;;9.90;6.57;;;;;;;13.25;100.00;100435.16;10696774;26;20018;-70
2024/04/09 02:16:10;;;;;;;9.55;5.80;;;;;;;13.25;100.00;100437.91;10719371;26;20040;-72
2024/04/09 02:21:07;;;;;;;9.73;5.50;;;;;;;13.33;100.00;100449.13;10714097;26;20006;-73
2024/04/09 02:26:05;;;;;;;8.35;5.53;;;;;;;13.39;100.00;100458.72;10705924;27;20085;-71
2024/04/09 02:31:04;;;;;;;13.20;5.50;;;;;;;13.36;100.00;100448.44;10720810;26;20034;-69
2024/04/09 02:36:04;;;;;;;10.50;5.90;;;;;;;13.33;100.00;100438.94;10697374;27;20021;-70
2024/04/09 02:41:01;;;;;;;15.88;6.57;;;;;;;13.22;100.00;100444.06;10691946;26;20350;-71
2024/04/09 02:45:59;;;;;;;9.63;5.90;;;;;;;13.20;100.00;100440.84;10719397;26;20042;-71
2024/04/09 02:50:58;;;;;;;13.63;6.72;;;;;;;13.14;100.00;100425.75;10717941;27;20018;-72
2024/04/09 02:56:02;;;;;;;11.80;6.50;;;;;;;13.16;100.00;100434.44;10716350;27;20011;-71
2024/04/09 03:01:05;;;;;;;8.52;5.97;;;;;;;13.22;100.00;100441.31;10727734;26;20026;-70
2024/04/09 03:06:07;;;;;;;16.45;5.75;;;;;;;13.23;100.00;100433.88;10707438;26;20021;-70
2024/04/09 03:11:12;;;;;;;;;;;;;;;13.32;100.00;100425.56;10706100;26;20003;-74
2024/04/09 03:16:16;;;;;;;7.80;5.28;;;;;;;13.38;100.00;100430.47;10707823;26;19939;-74
2024/04/09 03:21:14;;;;;;;9.02;5.35;;;;;;;13.41;100.00;100426.22;10710582;26;20458;-74
2024/04/09 03:26:14;;;;;;;8.35;5.72;;;;;;;13.45;100.00;100418.91;10696284;27;20010;-75
2024/04/09 03:31:11;;;;;;;10.27;5.47;;;;;;;13.45;100.00;100402.44;10724772;26;20003;-70
2024/04/09 03:36:09;;;;;;;11.00;6.13;;;;;;;13.44;100.00;100406.34;10707831;27;20010;-74
2024/04/09 03:41:07;;;;;;;11.35;5.82;;;;;;;13.50;100.00;100398.66;10706035;26;20003;-75
2024/04/09 03:46:08;;;;;;;9.77;5.15;;;;;;;13.51;100.00;100387.34;10689803;26;20015;-73
2024/04/09 03:51:06;;;;;;;11.80;5.20;;;;;;;13.57;100.00;100396.91;10715363;26;20561;-71
2024/04/09 03:56:06;;;;;;;11.68;4.40;;;;;;;13.60;100.00;100377.03;10699902;26;20020;-71
2024/04/09 04:01:05;;;;;;;10.45;5.55;;;;;;;13.64;100.00;100380.66;10675652;27;20788;-73
2024/04/09 04:06:05;;;;;;;9.30;5.32;;;;;;;13.66;100.00;100370.13;10686225;26;20010;-73
2024/04/09 04:11:04;;;;;;;9.60;5.00;;;;;;;13.73;100.00;100374.25;10699813;26;20007;-74
2024/04/09 04:16:07;;;;;;;10.35;5.55;;;;;;;13.73;100.00;100368.75;10694081;27;20370;-73
2024/04/09 04:21:06;;;;;;;11.07;6.35;;;;;;;13.75;100.00;100366.44;10698706;27;20084;-71
2024/04/09 04:26:10;;;;;;;13.85;6.70;;;;;;;13.71;100.00;100365.53;10717604;26;20025;-71
2024/04/09 04:31:10;;;;;;;11.40;6.07;;;;;;;13.72;100.00;100372.66;10699171;26;20007;-72
2024/04/09 04:36:09;;;;;;;12.88;6.60;;;;;;;13.79;100.00;100381.09;10694859;26;20141;-71
2024/04/09 04:41:10;;;;;;;12.80;6.03;;;;;;;13.85;100.00;100379.69;10702563;26;20006;-71
2024/04/09 04:46:08;;;;;;;17.05;6.43;;;;;;;13.85;100.00;100363.22;10697342;26;20010;-70
2024/04/09 04:51:06;;;;;;;12.70;5.68;;;;;;;13.80;100.00;100358.75;10716689;26;20017;-69
2024/04/09 04:56:04;;;;;;;15.98;6.13;;;;;;;13.80;100.00;100319.50;10716847;26;20032;-69
2024/04/09 05:01:01;;;;;;;24.45;7.45;;;;;;;13.77;100.00;100287.22;10698286;26;20071;-69
2024/04/09 05:06:05;;;;;;;17.67;6.68;;;;;;;13.88;100.00;100315.81;10714579;26;20030;-70
2024/04/09 05:11:10;;;;;;;16.88;6.43;;;;;;;13.97;100.00;100302.72;10719624;26;20017;-69
2024/04/09 05:16:08;;;;;;;19.67;7.47;;;;;;;14.09;100.00;100294.41;10698105;26;20339;-69
2024/04/09 05:21:05;;;;;;;16.60;7.05;;;;;;;14.15;100.00;100280.38;10717961;26;20011;-69
2024/04/09 05:26:02;;;;;;;17.70;7.32;;;;;;;14.27;100.00;100285.81;10712565;26;20049;-69
2024/04/09 05:31:00;;;;;;;15.05;6.28;;;;;;;14.35;100.00;100271.09;10722090;26;20010;-69
2024/04/09 05:35:57;;;;;;;12.05;5.63;;;;;;;14.46;100.00;100268.63;10720708;26;20105;-70
2024/04/09 05:40:58;;;;;;;12.40;6.00;;;;;;;14.56;100.00;100261.81;10701031;26;20365;-69
2024/04/09 05:45:55;;;;;;;9.05;5.85;;;;;;;14.62;100.00;100276.88;10714146;26;20014;-69
2024/04/09 05:50:53;;;;;;;14.27;6.45;;;;;;;14.69;100.00;100285.31;10714495;26;20002;-69
2024/04/09 05:55:54;;;;;;;10.93;5.15;;;;;;;14.85;100.00;100297.13;10715993;27;20006;-70
2024/04/09 06:00:53;;;;;;;20.20;8.30;;;;;;;14.96;100.00;100289.09;10709205;26;20006;-69
2024/04/09 06:05:51;;;;;;;11.57;7.10;;;;;;;15.04;100.00;100284.56;10705714;27;20735;-69
2024/04/09 06:10:48;;;;;;;15.23;6.45;;;;;;;15.11;100.00;100274.53;10727625;26;20374;-69
2024/04/09 06:15:47;;;;;;;16.63;6.63;;;;;;;15.19;100.00;100297.50;10708204;26;20007;-69
2024/04/09 06:20:46;;;;;;;13.20;7.43;;;;;;;15.38;100.00;100299.47;10709666;26;20003;-69
2024/04/09 06:25:54;;;;;;;11.45;8.13;;;;;;;15.42;100.00;100318.84;10730448;26;20013;-69
2024/04/09 06:30:51;;;;;;;19.92;7.43;;;;;;;15.46;100.00;100339.03;10707932;26;20009;-69
2024/04/09 06:35:49;;;;;;;16.73;8.50;;;;;;;15.51;100.00;100322.22;10717158;26;20050;-69
2024/04/09 06:40:47;;;;;;;18.00;8.02;;;;;;;15.58;100.00;100349.91;10709069;26;20002;-69
2024/04/09 06:45:44;;;;;;;18.17;8.18;;;;;;;15.55;100.00;100477.41;10714405;26;20095;-69
2024/04/09 06:50:42;;;;;;;18.45;8.27;;;;;;;15.58;100.00;100455.41;10717302;26;20014;-69
2024/04/09 06:55:39;;;;;;;15.75;8.40;;;;;;;15.43;100.00;100469.22;10703490;27;20006;-70
2024/04/09 07:00:37;;;;;;;19.08;8.40;;;;;;;15.46;100.00;100443.72;10702384;27;20525;-70
2024/04/09 07:05:34;;;;;;;18.17;9.63;;;;;;;15.58;100.00;100455.41;10702350;26;20462;-70
2024/04/09 07:10:32;;;;;;;14.68;8.13;;;;;;;15.81;100.00;100445.72;10727169;26;20017;-70
2024/04/09 07:15:29;;;;;;;19.15;8.50;;;;;;;15.95;100.00;100443.28;10701872;27;20013;-70
2024/04/09 07:20:26;;;;;;;21.67;8.68;;;;;;;16.07;100.00;100448.66;10707174;26;20024;-70
2024/04/09 07:25:24;;;;;;;15.13;7.63;;;;;;;16.18;100.00;100463.47;10715828;26;20070;-70
2024/04/09 07:30:21;;;;;;;21.23;8.98;;;;;;;16.28;100.00;100444.75;10720630;26;20025;-70
2024/04/09 07:35:18;;;;;;;14.27;8.40;;;;;;;16.39;100.00;100437.50;10708817;26;20014;-70
2024/04/09 07:40:16;;;;;;;16.00;8.30;;;;;;;16.52;100.00;100446.38;10718230;26;20017;-70
2024/04/09 07:45:13;;;;;;;17.92;8.27;;;;;;;16.57;100.00;100471.75;10714380;26;20002;-70
2024/04/09 07:50:10;;;;;;;22.15;10.48;;;;;;;16.53;100.00;100470.09;10722838;27;20018;-71
2024/04/09 07:55:11;;;;;;;23.58;9.70;;;;;;;16.59;100.00;100466.66;10717289;26;20440;-70
2024/04/09 08:00:17;;;;;;;18.35;8.40;;;;;;;16.74;100.00;100476.00;10718461;26;20010;-70
2024/04/09 08:05:16;;;;;;;15.80;10.00;;;;;;;16.76;100.00;100468.16;10719251;27;20011;-70
2024/04/09 08:10:19;;;;;;;16.40;10.85;;;;;;;16.80;100.00;100465.47;10717857;26;20019;-70
2024/04/09 08:15:16;;;;;;;;;;;;;;;16.80;100.00;100451.69;10705575;27;20019;-69
2024/04/09 08:20:17;;;;;;;19.33;9.23;;;;;;;16.84;100.00;100452.53;10716158;27;19928;-70
2024/04/09 08:25:14;;;;;;;11.35;8.93;;;;;;;16.88;100.00;100475.50;10709043;27;20011;-70
2024/04/09 08:30:13;;;;;;;18.13;9.63;;;;;;;16.87;100.00;100465.59;10723442;26;20006;-70
2024/04/09 08:35:14;;;;;;;13.95;9.00;;;;;;;16.96;100.00;100465.38;10704702;27;20018;-70
2024/04/09 08:40:12;;;;;;;16.38;10.05;;;;;;;17.00;100.00;100456.00;10691951;27;20023;-70
2024/04/09 08:45:16;;;;;;;12.82;9.25;;;;;;;17.14;100.00;100487.81;10695520;27;20011;-69
2024/04/09 08:50:14;;;;;;;16.30;9.27;;;;;;;17.12;100.00;100512.22;10725479;26;20085;-69
2024/04/09 08:55:12;;;;;;;12.95;8.63;;;;;;;17.22;100.00;100539.25;10714186;26;20003;-70
2024/04/09 09:00:16;;;;;;;13.70;8.63;;;;;;;17.42;100.00;100515.91;10716972;26;20006;-69
2024/04/09 09:05:23;;;;;;;19.67;8.73;;;;;;;17.27;100.00;100504.97;10730623;26;20016;-69
2024/04/09 09:10:20;;;;;;;13.02;8.52;;;;;;;16.95;100.00;100464.59;10718384;26;20376;-71
2024/04/09 09:15:22;;;;;;;10.88;9.10;;;;;;;17.28;100.00;100477.00;10703579;26;20019;-71
2024/04/09 09:20:19;;;;;;;10.90;8.45;;;;;;;17.29;100.00;100544.91;10706300;27;20011;-71
2024/04/09 09:25:25;;;;;;;13.05;8.93;;;;;;;17.75;100.00;100588.31;10720434;26;20030;-70
2024/04/09 09:30:23;;;;;;;12.05;9.00;;;;;;;17.83;100.00;100590.09;10705895;26;19998;-71
2024/04/09 09:35:20;;;;;;;17.58;8.82;;;;;;;17.63;100.00;100581.00;10695248;27;20018;-70
2024/04/09 09:40:18;;;;;;;10.63;9.50;;;;;;;17.93;100.00;100569.28;10712105;26;20018;-71
2024/04/09 09:45:16;;;;;;;13.60;9.40;;;;;;;17.85;100.00;100541.53;10687944;27;20018;-71
2024/04/09 09:50:14;;;;;;;10.50;9.40;;;;;;;17.73;100.00;100580.41;10718831;27;20003;-71
2024/04/09 09:55:15;;;;;;;13.27;9.10;;;;;;;17.51;100.00;100606.88;10702072;27;20010;-72
2024/04/09 10:00:15;;;;;;;10.60;9.38;;;;;;;17.39;100.00;100631.94;10706378;26;20017;-71
2024/04/09 10:05:14;;;;;;;12.27;9.80;;;;;;;17.50;100.00;100665.28;10707924;26;20010;-69
2024/04/09 10:10:22;;;;;;;12.55;9.45;;;;;;;17.25;100.00;100615.88;10726390;26;20102;-71
2024/04/09 10:15:26;;;;;;;15.23;9.93;;;;;;;17.16;100.00;100634.66;10711291;27;20015;-69
2024/04/09 10:20:26;;;;;;;12.27;10.80;;;;;;;17.03;100.00;100686.47;10710135;26;20007;-69
2024/04/09 10:25:25;;;;;;;11.63;9.73;;;;;;;17.10;100.00;100649.91;10699311;26;20014;-71
2024/04/09 10:30:27;;;;;;;12.18;9.52;;;;;;;16.80;100.00;100676.13;10720905;26;21540;-71
2024/04/09 10:35:24;;;;;;;11.38;9.25;;;;;;;16.75;100.00;100686.63;10717879;26;20030;-70
2024/04/09 10:40:22;;;;;;;16.20;10.30;;;;;;;16.55;100.00;100689.34;10720630;26;20378;-71
2024/04/09 10:45:19;;;;;;;10.70;9.25;;;;;;;16.50;100.00;100692.38;10696120;26;20010;-71
2024/04/09 10:50:17;;;;;;;14.65;9.68;;;;;;;16.55;100.00;100711.44;10722395;27;20021;-71
2024/04/09 10:55:15;;;;;;;10.45;9.55;;;;;;;16.34;100.00;100711.72;10699762;27;20018;-71
2024/04/09 11:00:13;;;;;;;12.30;9.77;;;;;;;16.28;100.00;100734.41;10714850;26;20006;-71
2024/04/09 11:05:12;;;;;;;17.02;9.43;;;;;;;16.28;100.00;100718.66;10729468;26;20009;-71
2024/04/09 11:10:11;;;;;;;11.85;9.10;;;;;;;16.33;100.00;100723.09;10726943;26;20095;-71
2024/04/09 11:15:10;;;;;;;10.63;9.43;;;;;;;16.58;100.00;100749.34;10721266;26;20015;-71
2024/04/09 11:20:14;;;;;;;12.93;9.20;;;;;;;16.50;100.00;100747.59;10702364;27;20476;-71
2024/04/09 11:25:14;;;;;;;13.25;9.30;;;;;;;16.23;100.00;100731.94;10709621;26;20025;-71
2024/04/09 11:30:24;;;;;;;9.98;9.10;;;;;;;16.33;100.00;100753.44;10709063;27;20022;-71
2024/04/09 11:35:23;;;;;;;13.32;9.60;;;;;;;16.19;100.00;100749.16;10717770;27;20463;-71
2024/04/09 11:40:21;;;;;;;10.80;9.70;;;;;;;15.83;100.00;100741.94;10702898;27;20011;-71
2024/04/09 11:45:33;;;;;;;10.05;9.05;;;;;;;15.82;100.00;100783.63;10705774;26;20473;-71
2024/04/09 11:50:30;;;;;;;;;;;;;;;16.12;100.00;100749.00;10727944;26;20013;-71
2024/04/09 11:55:27;;;;;;;11.38;8.85;;;;;;;16.37;100.00;100704.69;10721693;26;19962;-71
2024/04/09 12:00:24;;;;;;;10.68;9.30;;;;;;;16.34;100.00;100749.56;10702830;26;20018;-71
2024/04/09 12:05:22;;;;;;;13.85;9.38;;;;;;;16.29;100.00;100774.63;10714833;27;22588;-71
2024/04/09 12:10:20;;;;;;;16.17;10.07;;;;;;;16.24;100.00;100778.44;10713232;26;20006;-71
2024/04/09 12:15:17;;;;;;;10.35;8.93;;;;;;;16.45;100.00;100786.47;10711144;27;20007;-71
2024/04/09 12:20:14;;;;;;;12.88;9.90;;;;;;;16.44;100.00;100801.44;10721049;26;20017;-71
2024/04/09 12:25:11;;;;;;;11.35;9.45;;;;;;;16.19;100.00;100787.78;10705185;27;20022;-72
2024/04/09 12:30:10;;;;;;;13.60;9.73;;;;;;;16.03;100.00;100800.75;10695305;26;20010;-71
2024/04/09 12:35:08;;;;;;;11.43;10.30;;;;;;;15.88;100.00;100824.38;10713068;26;20438;-71
2024/04/09 12:40:05;;;;;;;10.98;9.77;;;;;;;15.72;100.00;100846.38;10710411;26;20014;-70
2024/04/09 12:45:02;;;;;;;9.15;8.27;;;;;;;15.51;100.00;100857.56;10700105;26;20014;-71
2024/04/09 12:50:00;;;;;;;9.25;8.23;;;;;;;15.25;100.00;100855.19;10705698;27;20017;-71
2024/04/09 12:54:59;;;;;;;9.43;8.63;;;;;;;15.11;100.00;100854.75;10707030;27;20693;-71
2024/04/09 12:59:57;;;;;;;9.93;9.13;;;;;;;14.85;100.00;100872.41;10704344;26;20025;-71
2024/04/09 13:05:16;;;;;;;9.88;8.95;;;;;;;14.77;100.00;100862.31;10704947;27;20448;-72
2024/04/09 13:10:16;;;;;;;9.98;9.07;;;;;;;14.68;100.00;100886.38;10725375;26;20014;-72
2024/04/09 13:15:13;;;;;;;10.35;9.32;;;;;;;14.62;100.00;100893.22;10712849;26;20018;-71
2024/04/09 13:20:30;;;;;;;10.98;9.98;;;;;;;-146.18;100.00;67994.34;10718411;26;19998;-72
2024/04/09 13:25:27;;;;;;;10.32;9.32;;;;;;;-146.18;100.00;67994.34;10703460;27;20473;-71
2024/04/09 13:30:25;;;;;;;11.20;10.10;;;;;;;-146.18;100.00;67994.34;10701182;26;20007;-71
2024/04/09 13:35:22;;;;;;;14.07;9.30;;;;;;;-146.18;100.00;67994.34;10711411;26;20026;-70
2024/04/09 13:40:20;;;;;;;10.70;8.75;;;;;;;-146.18;100.00;67994.34;10708733;27;20515;-70
2024/04/09 13:45:17;;;;;;;9.35;8.52;;;;;;;12.41;100.00;101016.72;10711876;26;20035;-70
2024/04/09 13:50:18;;;;;;;9.18;8.10;;;;;;;11.97;100.00;101035.09;10692934;26;20490;-69
2024/04/09 13:55:16;;;;;;;7.22;6.00;;;;;;;11.49;100.00;101044.09;10708319;26;20014;-69
2024/04/09 14:00:13;;;;;;;5.88;5.28;;;;;;;11.14;100.00;101065.81;10717432;26;20106;-69
2024/04/09 14:05:10;;;;;;;6.05;5.53;;;;;;;10.85;100.00;101065.44;10712859;26;20058;-69
2024/04/09 14:10:08;;;;;;;5.72;4.88;;;;;;;10.78;100.00;101062.34;10715453;26;20572;-70
2024/04/09 14:15:05;;;;;;;5.45;4.53;;;;;;;10.84;100.00;101044.69;10707532;26;20022;-70
2024/04/09 14:20:10;;;;;;;5.88;4.93;;;;;;;10.91;100.00;101028.66;10712713;27;20026;-70
2024/04/09 14:25:08;;;;;;;5.68;4.03;;;;;;;11.03;100.00;101020.66;10698549;26;20017;-70
2024/04/09 14:30:06;;;;;;;7.07;5.10;;;;;;;11.04;100.00;101016.00;10700267;26;20011;-71
2024/04/09 14:35:03;;;;;;;6.85;4.75;;;;;;;10.97;100.00;101010.97;10720945;26;20354;-71
2024/04/09 14:40:00;;;;;;;4.88;4.43;;;;;;;11.14;100.00;101011.06;10703961;27;20015;-71
2024/04/09 14:44:58;;;;;;;5.07;4.60;;;;;;;11.24;100.00;101003.72;10717352;27;20003;-72
2024/04/09 14:49:55;;;;;;;5.50;5.00;;;;;;;11.32;100.00;101005.66;10722952;26;20021;-71
2024/04/09 14:54:54;;;;;;;5.57;4.70;;;;;;;11.23;100.00;101013.88;10707799;26;20013;-72
2024/04/09 14:59:51;;;;;;;5.75;5.20;;;;;;;11.34;100.00;101030.81;10711774;26;20003;-72
2024/04/09 15:04:48;;;;;;;6.15;5.65;;;;;;;11.22;100.00;101027.84;10706801;26;20080;-72
2024/04/09 15:09:45;;;;;;;6.03;5.43;;;;;;;10.98;100.00;101018.06;10716310;26;20433;-72
2024/04/09 15:14:43;;;;;;;7.95;6.07;;;;;;;10.88;100.00;101032.00;10719016;26;20021;-70
2024/04/09 15:19:40;;;;;;;8.02;5.82;;;;;;;11.00;100.00;101037.72;10708755;26;20018;-71
2024/04/09 15:24:37;;;;;;;7.28;6.68;;;;;;;11.04;100.00;101030.47;10722942;26;20021;-71
2024/04/09 15:29:34;;;;;;;5.20;4.70;;;;;;;11.11;100.00;101028.09;10724388;26;20014;-71
2024/04/09 15:34:31;;;;;;;8.00;5.75;;;;;;;11.09;100.00;101049.53;10716768;26;20003;-71
2024/04/09 15:39:29;;;;;;;6.30;5.70;;;;;;;11.07;100.00;101059.97;10724814;26;20126;-71
2024/04/09 15:44:27;;;;;;;6.40;5.90;;;;;;;11.16;100.00;101068.22;10691829;27;20454;-71
2024/04/09 15:49:24;;;;;;;8.27;7.13;;;;;;;11.20;100.00;101073.88;10693720;27;20500;-71
2024/04/09 15:54:21;;;;;;;6.20;5.60;;;;;;;11.21;100.00;101070.00;10704574;27;20469;-71
2024/04/09 15:59:18;;;;;;;9.68;7.00;;;;;;;11.28;100.00;101067.63;10703112;26;20050;-71
2024/04/09 16:04:15;;;;;;;7.47;6.72;;;;;;;11.33;100.00;101075.72;10709300;26;20069;-70
2024/04/09 16:09:15;;;;;;;12.77;6.57;;;;;;;11.34;100.00;101085.56;10725000;26;20079;-71
2024/04/09 16:14:13;;;;;;;6.82;6.13;;;;;;;11.34;100.00;101099.25;10693708;26;20021;-70
2024/04/09 16:19:10;;;;;;;7.53;6.82;;;;;;;11.41;100.00;101099.59;10700695;26;20084;-73
2024/04/09 16:24:08;;;;;;;10.30;6.97;;;;;;;11.35;100.00;101114.56;10680765;27;20363;-72
2024/04/09 16:29:05;;;;;;;9.82;7.70;;;;;;;11.37;100.00;101106.81;10713626;26;20111;-72
2024/04/09 16:34:05;;;;;;;11.70;7.38;;;;;;;11.35;100.00;101114.56;10708653;26;20358;-72
2024/04/09 16:39:02;;;;;;;8.07;7.07;;;;;;;11.30;100.00;101117.41;10701805;27;20006;-72
2024/04/09 16:44:00;;;;;;;11.32;7.25;;;;;;;11.37;100.00;101117.75;10706373;26;20006;-72
2024/04/09 16:48:57;;;;;;;9.93;7.97;;;;;;;11.32;100.00;101109.69;10696764;26;20025;-72
2024/04/09 16:53:55;;;;;;;8.63;7.82;;;;;;;11.47;100.00;101144.91;10729404;26;20345;-72
2024/04/09 16:58:52;;;;;;;9.70;8.20;;;;;;;11.52;100.00;101152.97;10623535;26;20073;-71
2024/04/09 17:03:50;;;;;;;12.38;7.57;;;;;;;11.49;100.00;101152.81;10675473;26;20011;-71
2024/04/09 17:08:49;;;;;;;9.88;8.32;;;;;;;11.52;100.00;101147.50;10703472;26;20002;-72
2024/04/09 17:13:46;;;;;;;9.63;7.35;;;;;;;11.50;100.00;101152.47;10647739;27;20007;-71
2024/04/09 17:18:44;;;;;;;11.52;7.40;;;;;;;11.53;100.00;101142.81;10625878;27;20003;-72
2024/04/09 17:23:41;;;;;;;8.52;7.10;;;;;;;11.53;100.00;101159.25;10667913;27;20018;-72
2024/04/09 17:28:38;;;;;;;7.95;7.25;;;;;;;11.54;100.00;101145.25;10699285;26;19999;-71
2024/04/09 17:33:35;;;;;;;9.45;6.95;;;;;;;11.53;100.00;101143.66;10694964;26;20010;-72
2024/04/09 17:38:33;;;;;;;9.32;5.75;;;;;;;11.54;100.00;101167.16;10686281;26;20021;-72
2024/04/09 17:43:30;;;;;;;12.73;8.45;;;;;;;11.54;100.00;101161.69;10688583;26;20028;-72
2024/04/09 17:48:27;;;;;;;8.73;6.20;;;;;;;11.55;100.00;101163.28;10691851;27;20007;-72
2024/04/09 17:53:25;;;;;;;7.60;6.45;;;;;;;11.46;100.00;101165.16;10680347;26;20786;-72
2024/04/09 17:58:23;;;;;;;7.97;6.75;;;;;;;11.48;100.00;101182.09;10687951;26;20236;-73
2024/04/09 18:03:21;;;;;;;7.43;6.05;;;;;;;11.45;100.00;101196.44;10671088;26;20010;-73
2024/04/09 18:08:19;;;;;;;8.30;6.32;;;;;;;11.42;100.00;101191.59;10723196;26;20017;-73
2024/04/09 18:13:16;;;;;;;9.98;5.82;;;;;;;11.45;100.00;101196.44;10705562;26;20014;-72
2024/04/09 18:18:15;;;;;;;7.82;5.85;;;;;;;11.46;100.00;101203.50;10705403;26;20010;-73
2024/04/09 18:23:13;;;;;;;7.55;6.15;;;;;;;11.46;100.00;101208.97;10710235;26;20018;-72
2024/04/09 18:28:11;;;;;;;8.98;6.38;;;;;;;11.42;100.00;101205.28;10701747;27;20010;-72
2024/04/09 18:33:08;;;;;;;8.82;5.70;;;;;;;11.44;100.00;101222.19;10701911;26;20002;-72
2024/04/09 18:38:05;;;;;;;7.38;5.47;;;;;;;11.42;100.00;101202.53;10695252;26;20002;-72
2024/04/09 18:43:03;;;;;;;8.68;5.18;;;;;;;11.48;100.00;101217.69;10703372;26;20019;-72
2024/04/09 18:48:01;;;;;;;6.57;5.25;;;;;;;11.51;100.00;101222.56;10734149;26;20020;-73
2024/04/09 18:52:58;;;;;;;5.95;5.00;;;;;;;11.54;100.00;101213.72;10705516;26;20020;-73
2024/04/09 18:57:55;;;;;;;7.45;4.65;;;;;;;11.52;100.00;101213.22;10710196;26;20332;-72
2024/04/09 19:02:52;;;;;;;9.82;5.47;;;;;;;11.54;100.00;101232.91;10693734;26;20084;-72
2024/04/09 19:07:51;;;;;;;6.65;5.00;;;;;;;11.55;100.00;101237.25;10707404;27;20061;-71
2024/04/09 19:12:50;;;;;;;10.18;4.57;;;;;;;11.54;100.00;101241.09;10711944;26;20486;-72
2024/04/09 19:17:47;;;;;;;7.35;4.40;;;;;;;11.49;100.00;101241.25;10690025;26;20003;-72
2024/04/09 19:22:45;;;;;;;6.90;4.90;;;;;;;11.52;100.00;101254.28;10705983;26;20003;-72
2024/04/09 19:27:44;;;;;;;9.30;4.90;;;;;;;11.53;100.00;101247.72;10708143;26;20007;-72
2024/04/09 19:32:42;;;;;;;6.82;5.05;;;;;;;11.53;100.00;101236.75;10693768;26;20014;-72
2024/04/09 19:37:39;;;;;;;6.80;4.82;;;;;;;11.54;100.00;101238.38;10722623;26;20009;-71
2024/04/09 19:42:37;;;;;;;6.90;4.55;;;;;;;11.61;100.00;101243.41;10706274;26;20602;-72
2024/04/09 19:47:34;;;;;;;5.05;4.40;;;;;;;11.58;100.00;101244.84;10717580;27;20534;-72
2024/04/09 19:52:31;;;;;;;5.30;4.57;;;;;;;11.64;100.00;101225.53;10686636;26;20413;-72
2024/04/09 19:57:29;;;;;;;7.88;4.72;;;;;;;11.61;100.00;101231.66;10681628;27;20043;-73
2024/04/09 20:02:26;;;;;;;5.30;4.80;;;;;;;11.61;100.00;101251.63;10696811;26;20014;-73
2024/04/09 20:07:23;;;;;;;6.38;5.00;;;;;;;11.59;100.00;101246.44;10690323;26;20021;-77
2024/04/09 20:12:21;;;;;;;5.25;4.75;;;;;;;11.64;100.00;101261.16;10704921;26;20467;-73
2024/04/09 20:17:19;;;;;;;6.75;5.00;;;;;;;11.65;100.00;101249.91;10699503;26;20062;-73
2024/04/09 20:22:16;;;;;;;6.03;5.13;;;;;;;11.68;100.00;101253.94;10705049;27;20016;-73
2024/04/09 20:27:13;;;;;;;9.27;5.35;;;;;;;11.67;100.00;101249.56;10717266;26;20010;-74
2024/04/09 20:32:11;;;;;;;6.40;5.38;;;;;;;11.61;100.00;101264.53;10701921;26;20011;-72
2024/04/09 20:37:08;;;;;;;5.72;5.07;;;;;;;11.56;100.00;101258.03;10697169;26;20018;-67
2024/04/09 20:42:05;;;;;;;5.60;4.53;;;;;;;11.53;100.00;101272.38;10716112;26;20026;-68
2024/04/09 20:47:03;;;;;;;8.15;5.30;;;;;;;11.49;100.00;101263.16;10726240;26;20039;-69
2024/04/09 20:52:00;;;;;;;5.55;4.40;;;;;;;11.49;100.00;101287.78;10721394;26;20011;-70
2024/04/09 20:56:57;;;;;;;5.90;5.32;;;;;;;11.47;100.00;101292.75;10712550;26;20025;-70
2024/04/09 21:01:54;;;;;;;5.47;4.90;;;;;;;11.40;100.00;101306.06;10718675;26;20478;-73
2024/04/09 21:06:52;;;;;;;5.65;4.78;;;;;;;11.40;100.00;101300.59;10705005;26;20084;-70
2024/04/09 21:11:49;;;;;;;4.70;4.18;;;;;;;11.33;100.00;101325.66;10716274;26;20096;-71
2024/04/09 21:16:46;;;;;;;4.80;4.40;;;;;;;11.24;100.00;101326.69;10692873;27;20010;-70
2024/04/09 21:21:43;;;;;;;5.57;4.75;;;;;;;11.18;100.00;101330.66;10713122;26;20077;-71
2024/04/09 21:26:41;;;;;;;10.07;4.78;;;;;;;11.11;100.00;101356.50;10720766;26;20017;-71
2024/04/09 21:31:38;;;;;;;5.30;4.18;;;;;;;10.99;100.00;101358.94;10707293;26;20021;-70
2024/04/09 21:36:35;;;;;;;5.13;4.30;;;;;;;10.90;100.00;101347.91;10698024;27;20708;-67
2024/04/09 21:41:32;;;;;;;7.88;4.78;;;;;;;10.83;100.00;101349.44;10709992;26;20010;-70
2024/04/09 21:46:30;;;;;;;5.25;4.63;;;;;;;10.71;100.00;101352.69;10715674;26;20096;-72
2024/04/09 21:51:27;;;;;;;7.40;4.47;;;;;;;10.63;100.00;101350.63;10719775;26;20003;-72
2024/04/09 21:56:24;;;;;;;7.55;4.30;;;;;;;10.55;100.00;101356.81;10698019;27;20015;-72
2024/04/09 22:01:21;;;;;;;5.47;4.85;;;;;;;10.48;100.00;101344.34;10715697;26;20010;-69
2024/04/09 22:06:20;;;;;;;5.32;4.63;;;;;;;10.44;100.00;101347.97;10698180;27;20523;-70
2024/04/09 22:11:18;;;;;;;6.50;5.13;;;;;;;10.37;100.00;101358.50;10699573;26;20007;-70
2024/04/09 22:16:15;;;;;;;7.03;4.53;;;;;;;10.34;100.00;101370.03;10700123;26;20016;-72
2024/04/09 22:21:12;;;;;;;8.63;4.55;;;;;;;10.27;100.00;101382.13;10721891;26;20054;-73
2024/04/09 22:26:10;;;;;;;5.07;4.57;;;;;;;10.28;100.00;101389.28;10710472;26;20011;-70